Time;durP1;ratioP1;P1;durP2;ratioP2;P2;SDS_P1;SDS_P2;PMS_P1;PMS_P2;Temp;Humidity;BMP_temperature;BMP_pressure;BME280_temperature;BME280_humidity;BME280_pressure;Samples;Min_cycle;Max_cycle;Signal;HPM_P1;HPM_P2
2023/10/29 00:00:11;;;;;;;6.95;2.30;;;;;;;9.75;100.00;92043.09;6279082;22;20077;-83
2023/10/29 00:02:37;;;;;;;10.98;2.40;;;;;;;9.72;100.00;92035.81;6312732;22;20022;-82
2023/10/29 00:05:03;;;;;;;6.40;2.30;;;;;;;9.73;100.00;92040.00;6316968;22;20003;-82
2023/10/29 00:07:28;;;;;;;6.70;2.30;;;;;;;9.84;100.00;92042.41;6318513;22;20017;-80
2023/10/29 00:09:55;;;;;;;8.02;2.13;;;;;;;9.92;100.00;92060.78;6290392;22;20022;-82
2023/10/29 00:12:20;;;;;;;6.10;2.13;;;;;;;9.94;100.00;92057.91;6284877;22;20026;-81
2023/10/29 00:14:46;;;;;;;3.67;2.10;;;;;;;9.89;100.00;92058.00;6284233;22;20007;-83
2023/10/29 00:17:12;;;;;;;7.63;2.17;;;;;;;9.81;100.00;92054.22;6310806;22;20019;-83
2023/10/29 00:19:38;;;;;;;5.13;2.13;;;;;;;9.80;100.00;92057.91;6311215;22;20015;-84
2023/10/29 00:22:04;;;;;;;7.45;2.22;;;;;;;9.78;100.00;92066.03;6310745;22;20080;-84
2023/10/29 00:24:29;;;;;;;7.63;2.30;;;;;;;9.75;100.00;92058.00;6311088;22;20070;-83
2023/10/29 00:26:55;;;;;;;4.43;2.30;;;;;;;9.73;100.00;92063.53;6311589;22;20019;-84
2023/10/29 00:29:21;;;;;;;7.28;2.47;;;;;;;9.71;100.00;92055.19;6310630;22;20012;-83
2023/10/29 00:31:47;;;;;;;4.45;2.10;;;;;;;9.72;100.00;92069.78;6309869;22;19999;-83
2023/10/29 00:34:13;;;;;;;5.63;2.42;;;;;;;9.70;100.00;92064.09;6310802;22;20429;-82
2023/10/29 00:36:39;;;;;;;7.75;2.15;;;;;;;9.64;100.00;92059.28;6310100;22;20011;-83
2023/10/29 00:39:05;;;;;;;11.18;4.72;;;;;;;9.64;100.00;92060.03;6282147;22;20037;-83
2023/10/29 00:41:31;;;;;;;7.78;3.10;;;;;;;9.67;100.00;92062.06;6309978;22;20452;-82
2023/10/29 00:43:57;;;;;;;7.35;2.30;;;;;;;9.64;100.00;92064.50;6284174;22;20015;-82
2023/10/29 00:46:24;;;;;;;6.90;2.50;;;;;;;9.71;100.00;92070.09;6285006;22;19999;-82
2023/10/29 00:48:50;;;;;;;4.20;2.22;;;;;;;9.68;100.00;92050.56;6312370;22;20014;-82
2023/10/29 00:51:16;;;;;;;9.40;3.08;;;;;;;9.69;100.00;92059.16;6290968;22;20026;-82
2023/10/29 00:53:42;;;;;;;5.38;2.55;;;;;;;9.70;100.00;92068.53;6322628;22;20015;-81
2023/10/29 00:56:08;;;;;;;8.63;2.35;;;;;;;9.69;100.00;92067.78;6296010;22;20007;-82
2023/10/29 00:58:34;;;;;;;4.88;2.33;;;;;;;9.66;100.00;92070.19;6294931;22;20067;-81
2023/10/29 01:01:00;;;;;;;8.70;3.10;;;;;;;9.55;100.00;92048.72;6294809;22;20015;-82
2023/10/29 01:03:25;;;;;;;5.88;2.30;;;;;;;9.58;100.00;92058.56;6321565;22;20034;-82
2023/10/29 01:05:51;;;;;;;8.02;2.60;;;;;;;9.60;100.00;92061.69;6322223;22;20018;-82
2023/10/29 01:08:17;;;;;;;5.10;2.38;;;;;;;9.57;100.00;92059.66;6321858;22;20011;-82
2023/10/29 01:10:43;;;;;;;7.85;2.88;;;;;;;9.57;100.00;92064.88;6286765;22;20102;-84
2023/10/29 01:13:08;;;;;;;5.57;2.33;;;;;;;9.58;100.00;92066.41;6311602;22;20348;-83
2023/10/29 01:15:35;;;;;;;4.60;2.35;;;;;;;9.57;100.00;92067.50;6257988;22;20022;-84
2023/10/29 01:18:01;;;;;;;7.57;2.20;;;;;;;9.54;100.00;92054.97;6310950;22;20027;-83
2023/10/29 01:20:27;;;;;;;7.10;2.00;;;;;;;9.52;100.00;92051.88;6311621;22;20066;-84
2023/10/29 01:22:54;;;;;;;5.72;2.20;;;;;;;9.58;100.00;92066.41;6310340;22;20557;-84
2023/10/29 01:25:19;;;;;;;3.92;2.20;;;;;;;9.56;100.00;92063.31;6309996;22;20010;-82
2023/10/29 01:27:45;;;;;;;5.82;2.53;;;;;;;9.54;100.00;92066.22;6307054;22;20019;-83
2023/10/29 01:30:11;;;;;;;6.38;2.50;;;;;;;9.55;100.00;92072.22;6282383;22;20010;-83
2023/10/29 01:32:38;;;;;;;5.03;2.25;;;;;;;9.54;100.00;92075.88;6309792;22;20438;-84
2023/10/29 01:35:04;;;;;;;6.97;2.20;;;;;;;9.53;100.00;92063.91;6283077;22;20021;-80
2023/10/29 01:37:30;;;;;;;5.80;2.30;;;;;;;9.53;100.00;92059.44;6282578;22;20003;-83
2023/10/29 01:39:56;;;;;;;9.15;2.30;;;;;;;9.53;100.00;92051.59;6281907;22;20145;-84
2023/10/29 01:42:22;;;;;;;10.30;2.15;;;;;;;9.58;100.00;92059.34;6310203;22;20011;-81
2023/10/29 01:44:47;;;;;;;6.10;2.38;;;;;;;9.62;100.00;92059.56;6281367;22;20014;-83
2023/10/29 01:47:14;;;;;;;5.65;1.98;;;;;;;9.59;100.00;92052.28;6308720;22;20015;-84
2023/10/29 01:49:40;;;;;;;5.50;2.00;;;;;;;9.62;100.00;92056.94;6281262;22;20025;-84
2023/10/29 01:52:06;;;;;;;6.85;2.30;;;;;;;9.63;100.00;92050.63;6310033;22;20018;-84
2023/10/29 01:54:32;;;;;;;9.57;2.42;;;;;;;9.59;100.00;92042.63;6309610;22;20340;-84
2023/10/29 01:56:57;;;;;;;4.82;1.90;;;;;;;9.62;100.00;92045.72;6280714;22;20019;-82
2023/10/29 01:59:23;;;;;;;4.88;2.20;;;;;;;9.61;100.00;92044.91;6281644;22;20050;-84
2023/10/29 02:01:50;;;;;;;6.13;2.20;;;;;;;9.64;100.00;92046.97;6280958;22;20098;-84
2023/10/29 02:04:16;;;;;;;8.38;2.25;;;;;;;9.63;100.00;92058.47;6281600;22;20014;-83
2023/10/29 02:06:41;;;;;;;7.55;2.08;;;;;;;9.62;100.00;92046.47;6308653;22;20015;-83
2023/10/29 02:09:12;;;;;;;8.00;2.38;;;;;;;9.62;100.00;92051.72;6281509;22;20018;-84
2023/10/29 02:11:40;;;;;;;6.82;2.50;;;;;;;9.62;100.00;92041.25;6276106;22;20394;-84
2023/10/29 02:14:06;;;;;;;9.75;2.25;;;;;;;9.63;100.00;92045.41;6276730;22;20050;-83
2023/10/29 02:16:32;;;;;;;4.05;2.00;;;;;;;9.63;100.00;92042.78;6250440;22;20497;-82
2023/10/29 02:18:58;;;;;;;7.22;2.40;;;;;;;9.64;100.00;92039.13;6276231;22;20022;-81
2023/10/29 02:21:24;;;;;;;8.23;2.58;;;;;;;9.60;100.00;92030.31;6278538;22;20436;-83
2023/10/29 02:23:50;;;;;;;7.60;2.53;;;;;;;9.61;100.00;92034.47;6251967;22;20012;-84
2023/10/29 02:26:16;;;;;;;5.07;2.00;;;;;;;9.83;100.00;92027.78;6275323;22;20397;-82
2023/10/29 02:28:42;;;;;;;7.63;2.35;;;;;;;9.73;100.00;92026.16;6276863;22;20508;-83
2023/10/29 02:31:16;;;;;;;10.25;2.88;;;;;;;9.68;100.00;92029.66;6249890;22;20016;-83
2023/10/29 02:33:43;;;;;;;8.38;2.38;;;;;;;9.64;100.00;92031.28;6274734;22;20018;-84
2023/10/29 02:36:10;;;;;;;8.23;2.05;;;;;;;9.57;100.00;92020.47;6277249;22;20421;-84
2023/10/29 02:38:37;;;;;;;5.75;2.30;;;;;;;9.52;100.00;92020.53;6276758;22;20018;-82
2023/10/29 02:41:04;;;;;;;6.50;2.22;;;;;;;9.52;100.00;92025.75;6250937;22;20027;-81
2023/10/29 02:43:30;;;;;;;4.82;2.10;;;;;;;9.48;100.00;92017.75;6275491;22;20352;-84
2023/10/29 02:45:56;;;;;;;5.20;1.90;;;;;;;9.44;100.00;92010.78;6275187;22;20046;-83
2023/10/29 02:48:22;;;;;;;5.93;2.20;;;;;;;9.39;100.00;92009.03;6249014;22;20396;-83
2023/10/29 02:50:47;;;;;;;5.38;2.38;;;;;;;9.31;100.00;92005.25;6248401;22;20058;-82
2023/10/29 02:53:13;;;;;;;8.25;2.25;;;;;;;9.26;100.00;92005.34;6275702;22;20072;-84
2023/10/29 02:55:39;;;;;;;7.90;2.45;;;;;;;9.26;100.00;92002.72;6277210;22;20083;-84
2023/10/29 02:58:05;;;;;;;6.30;2.15;;;;;;;9.30;100.00;92003.69;6273384;22;20010;-83
2023/10/29 03:00:32;;;;;;;5.55;2.28;;;;;;;9.31;100.00;92002.63;6276064;22;20364;-84
2023/10/29 03:02:57;;;;;;;8.57;2.13;;;;;;;9.31;100.00;92000.00;6275643;22;20039;-81
2023/10/29 03:05:23;;;;;;;6.38;2.30;;;;;;;9.31;100.00;91994.78;6275323;22;20022;-84
2023/10/29 03:07:49;;;;;;;5.43;1.92;;;;;;;9.36;100.00;91994.69;6276303;22;20442;-84
2023/10/29 03:10:15;;;;;;;6.30;2.22;;;;;;;9.35;100.00;91993.16;6274155;22;20012;-82
2023/10/29 03:12:40;;;;;;;9.70;2.10;;;;;;;9.38;100.00;91994.41;6248989;22;20031;-84
2023/10/29 03:15:07;;;;;;;5.13;2.00;;;;;;;9.33;100.00;91986.69;6276413;22;20012;-83
2023/10/29 03:17:33;;;;;;;7.60;2.20;;;;;;;9.37;100.00;91998.88;6276271;22;20041;-84
2023/10/29 03:19:59;;;;;;;5.38;1.80;;;;;;;9.35;100.00;92001.00;6275014;22;20121;-84
2023/10/29 03:22:24;;;;;;;7.18;2.33;;;;;;;9.32;100.00;91996.34;6274913;22;20094;-84
2023/10/29 03:24:50;;;;;;;4.38;1.88;;;;;;;9.35;100.00;91998.38;6275278;22;20447;-84
2023/10/29 03:27:15;;;;;;;4.75;2.00;;;;;;;9.40;100.00;91996.75;6275007;22;20007;-83
2023/10/29 03:29:41;;;;;;;6.15;2.08;;;;;;;9.40;100.00;92002.72;6274487;22;20007;-83
2023/10/29 03:32:07;;;;;;;6.30;1.90;;;;;;;9.41;100.00;92009.50;6273794;22;20038;-83
2023/10/29 03:34:32;;;;;;;9.75;2.35;;;;;;;9.36;100.00;92010.38;6275030;22;20003;-82
2023/10/29 03:36:58;;;;;;;6.75;2.00;;;;;;;9.36;100.00;92009.59;6276441;22;20543;-83
2023/10/29 03:39:24;;;;;;;5.68;1.90;;;;;;;9.42;100.00;92020.75;6275960;22;20429;-83
2023/10/29 03:41:50;;;;;;;6.72;2.20;;;;;;;9.40;100.00;92023.63;6277248;22;20189;-83
2023/10/29 03:44:16;;;;;;;7.35;2.00;;;;;;;9.40;100.00;92023.63;6249542;22;20015;-82
2023/10/29 03:46:41;;;;;;;5.18;1.83;;;;;;;9.58;100.00;92027.22;6250114;22;20014;-83
2023/10/29 03:49:08;;;;;;;7.82;1.95;;;;;;;9.49;100.00;92016.66;6277414;22;20007;-81
2023/10/29 03:51:33;;;;;;;4.82;1.88;;;;;;;9.49;100.00;92019.28;6249455;22;20003;-83
2023/10/29 03:54:00;;;;;;;5.25;2.20;;;;;;;9.46;100.00;92006.81;6275481;22;20023;-82
2023/10/29 03:56:26;;;;;;;6.40;1.95;;;;;;;9.41;100.00;92004.25;6249656;22;20154;-83
2023/10/29 03:58:51;;;;;;;8.40;2.00;;;;;;;9.40;100.00;92007.97;6276815;22;20012;-82
2023/10/29 04:01:18;;;;;;;7.57;2.00;;;;;;;9.36;100.00;92014.81;6275059;22;20027;-80
2023/10/29 04:03:43;;;;;;;10.02;2.22;;;;;;;9.37;100.00;92008.53;6274504;22;20034;-83
2023/10/29 04:06:12;;;;;;;8.00;2.17;;;;;;;9.28;100.00;91999.84;6275251;22;20015;-84
2023/10/29 04:08:39;;;;;;;4.10;1.98;;;;;;;9.32;100.00;92012.03;6274681;22;20007;-84
2023/10/29 04:11:05;;;;;;;4.82;2.17;;;;;;;9.24;100.00;92002.25;6274837;22;20016;-83
2023/10/29 04:13:32;;;;;;;6.85;2.00;;;;;;;9.27;100.00;92012.09;6276801;22;20016;-81
2023/10/29 04:15:57;;;;;;;5.88;2.10;;;;;;;9.24;100.00;92015.28;6274165;22;20016;-82
2023/10/29 04:18:27;;;;;;;6.20;2.10;;;;;;;9.15;100.00;92004.75;6274201;22;20050;-82
2023/10/29 04:20:56;;;;;;;9.52;2.38;;;;;;;9.22;100.00;92011.44;6275239;22;20062;-81
2023/10/29 04:23:22;;;;;;;8.38;2.38;;;;;;;9.20;100.00;92009.09;6274741;22;20020;-82
2023/10/29 04:25:47;;;;;;;6.18;2.03;;;;;;;9.18;100.00;92022.44;6276763;22;20010;-81
2023/10/29 04:28:13;;;;;;;5.68;2.00;;;;;;;9.20;100.00;92019.53;6274897;22;20012;-81
2023/10/29 04:30:39;;;;;;;6.65;2.40;;;;;;;9.21;100.00;92025.53;6274264;22;20099;-83
2023/10/29 04:33:04;;;;;;;5.70;1.90;;;;;;;9.22;100.00;92027.88;6276129;22;19999;-84
2023/10/29 04:35:30;;;;;;;4.75;1.80;;;;;;;9.22;100.00;92038.31;6274446;22;20026;-82
2023/10/29 04:37:56;;;;;;;13.32;2.30;;;;;;;9.23;100.00;92039.09;6275525;22;20026;-82
2023/10/29 04:40:22;;;;;;;6.50;1.80;;;;;;;9.23;100.00;92032.03;6274127;22;20012;-81
2023/10/29 04:42:47;;;;;;;4.88;2.08;;;;;;;9.26;100.00;92036.69;6248883;22;20040;-82
2023/10/29 04:45:13;;;;;;;3.95;2.25;;;;;;;9.24;100.00;92033.59;6274364;22;20338;-83
2023/10/29 04:47:39;;;;;;;8.82;2.60;;;;;;;9.30;100.00;92044.69;6275425;22;20682;-82
2023/10/29 04:50:06;;;;;;;8.60;2.83;;;;;;;9.30;100.00;92045.50;6276864;22;20018;-81
2023/10/29 04:52:32;;;;;;;6.93;2.45;;;;;;;9.32;100.00;92055.63;6277085;22;20000;-82
2023/10/29 04:55:00;;;;;;;5.03;2.03;;;;;;;9.32;100.00;92059.03;6276674;22;20077;-83
2023/10/29 04:57:27;;;;;;;6.32;2.13;;;;;;;9.31;100.00;92052.25;6277801;22;20058;-83
2023/10/29 04:59:53;;;;;;;6.25;2.00;;;;;;;9.33;100.00;92055.34;6277343;22;20472;-82
2023/10/29 05:02:19;;;;;;;5.70;2.10;;;;;;;9.34;100.00;92054.31;6251474;22;20019;-83
2023/10/29 05:04:44;;;;;;;4.75;1.92;;;;;;;9.32;100.00;92053.03;6277165;22;20000;-84
2023/10/29 05:07:10;;;;;;;3.97;2.10;;;;;;;9.35;100.00;92063.69;6249997;22;20016;-83
2023/10/29 05:09:36;;;;;;;7.15;2.70;;;;;;;9.35;100.00;92068.91;6277761;22;20051;-83
2023/10/29 05:12:02;;;;;;;5.78;2.72;;;;;;;9.32;100.00;92056.44;6277038;22;20016;-83
2023/10/29 05:14:28;;;;;;;6.35;2.75;;;;;;;9.35;100.00;92068.91;6251602;22;20100;-82
2023/10/29 05:16:54;;;;;;;7.05;2.30;;;;;;;9.34;100.00;92059.53;6277685;22;20019;-83
2023/10/29 05:19:20;;;;;;;9.13;2.28;;;;;;;9.37;100.00;92071.25;6250832;22;20448;-84
2023/10/29 05:21:46;;;;;;;9.18;2.60;;;;;;;9.37;100.00;92063.41;6277231;22;20015;-82
2023/10/29 05:24:11;;;;;;;8.43;2.58;;;;;;;9.37;100.00;92061.56;6277489;22;20061;-83
2023/10/29 05:26:37;;;;;;;10.18;2.55;;;;;;;9.38;100.00;92062.31;6276423;22;20062;-83
2023/10/29 05:29:06;;;;;;;4.63;2.05;;;;;;;9.38;100.00;92062.31;6276999;22;19995;-84
2023/10/29 05:31:32;;;;;;;7.75;2.28;;;;;;;9.36;100.00;92057.38;6277934;22;20372;-84
2023/10/29 05:33:57;;;;;;;8.65;2.08;;;;;;;9.37;100.00;92055.56;6278846;22;20000;-82
2023/10/29 05:36:23;;;;;;;10.23;2.30;;;;;;;9.34;100.00;92051.69;6277957;22;20027;-84
2023/10/29 05:38:49;;;;;;;10.00;2.35;;;;;;;9.38;100.00;92057.88;6278729;22;20437;-84
2023/10/29 05:41:14;;;;;;;8.88;2.38;;;;;;;9.32;100.00;92047.78;6255765;22;20086;-81
2023/10/29 05:43:40;;;;;;;6.40;2.25;;;;;;;9.36;100.00;92057.38;6289515;22;20004;-82
2023/10/29 05:46:14;;;;;;;6.00;1.92;;;;;;;9.35;100.00;92053.22;6289599;22;20465;-83
2023/10/29 05:48:40;;;;;;;6.05;1.90;;;;;;;9.34;100.00;92054.31;6289725;22;20457;-84
2023/10/29 05:51:08;;;;;;;5.55;2.13;;;;;;;9.36;100.00;92054.78;6229640;22;20022;-83
2023/10/29 05:53:38;;;;;;;6.53;2.10;;;;;;;9.40;100.00;92060.19;6256434;22;20508;-83
2023/10/29 05:56:04;;;;;;;5.22;1.80;;;;;;;9.41;100.00;92066.97;6254178;22;20011;-83
2023/10/29 05:58:30;;;;;;;3.63;1.70;;;;;;;9.42;100.00;92067.75;6280945;22;20465;-83
2023/10/29 06:00:55;;;;;;;7.63;2.00;;;;;;;9.42;100.00;92065.91;6279670;22;20015;-84
2023/10/29 06:03:21;;;;;;;11.15;2.00;;;;;;;9.37;100.00;92061.56;6279687;22;20010;-84
2023/10/29 06:05:47;;;;;;;5.07;1.98;;;;;;;9.44;100.00;92068.25;6227167;22;20091;-83
2023/10/29 06:08:12;;;;;;;5.72;2.00;;;;;;;9.43;100.00;92064.06;6278019;22;20027;-82
2023/10/29 06:10:38;;;;;;;3.85;1.80;;;;;;;9.45;100.00;92065.34;6253321;22;20008;-83
2023/10/29 06:13:04;;;;;;;4.53;2.08;;;;;;;9.50;100.00;92073.09;6309891;22;20330;-84
2023/10/29 06:15:30;;;;;;;4.93;2.13;;;;;;;9.55;100.00;92067.00;6280678;22;20022;-84
2023/10/29 06:17:55;;;;;;;5.90;2.88;;;;;;;9.54;100.00;92063.59;6309092;22;20047;-79
2023/10/29 06:20:22;;;;;;;6.57;2.45;;;;;;;9.54;100.00;92076.66;6310961;22;20061;-80
2023/10/29 06:22:48;;;;;;;4.85;1.98;;;;;;;9.56;100.00;92084.22;6312048;22;20003;-79
2023/10/29 06:25:15;;;;;;;3.05;1.73;;;;;;;9.57;100.00;92091.00;6309243;22;20069;-79
2023/10/29 06:27:40;;;;;;;6.18;1.90;;;;;;;9.57;100.00;92085.78;6311126;22;20022;-77
2023/10/29 06:30:07;;;;;;;4.43;1.88;;;;;;;9.59;100.00;92086.25;6279636;22;19996;-81
2023/10/29 06:32:32;;;;;;;4.07;1.90;;;;;;;9.61;100.00;92089.34;6279859;22;20065;-81
2023/10/29 06:34:58;;;;;;;6.03;1.98;;;;;;;9.64;100.00;92088.78;6307294;22;20015;-80
2023/10/29 06:37:24;;;;;;;6.07;1.90;;;;;;;9.67;100.00;92095.25;6306177;22;20082;-80
2023/10/29 06:39:50;;;;;;;4.97;1.90;;;;;;;9.71;100.00;92089.16;6280098;22;20394;-79
2023/10/29 06:42:15;;;;;;;4.85;2.10;;;;;;;9.73;100.00;92088.91;6282868;22;20026;-80
2023/10/29 06:44:41;;;;;;;7.25;2.63;;;;;;;9.74;100.00;92093.81;6310341;22;20003;-79
2023/10/29 06:47:07;;;;;;;5.72;2.22;;;;;;;9.75;100.00;92087.53;6282314;22;20064;-81
2023/10/29 06:49:33;;;;;;;4.82;2.13;;;;;;;9.77;100.00;92085.41;6281446;22;20009;-80
2023/10/29 06:51:59;;;;;;;8.45;2.10;;;;;;;9.79;100.00;92079.88;6307789;22;20426;-79
2023/10/29 06:54:24;;;;;;;5.40;2.10;;;;;;;9.87;100.00;92094.13;6281401;22;20015;-80
2023/10/29 06:56:50;;;;;;;7.00;2.30;;;;;;;9.89;100.00;92094.59;6309590;22;20439;-80
2023/10/29 06:59:16;;;;;;;6.70;2.10;;;;;;;9.94;100.00;92094.50;6307384;22;20456;-81
2023/10/29 07:01:42;;;;;;;4.72;2.13;;;;;;;9.98;100.00;92105.94;6280051;22;20011;-80
2023/10/29 07:04:08;;;;;;;7.18;2.20;;;;;;;10.10;100.00;92098.34;6307111;22;20022;-82
2023/10/29 07:06:34;;;;;;;5.60;2.20;;;;;;;10.16;100.00;92101.66;6308128;22;20456;-80
2023/10/29 07:09:00;;;;;;;5.15;2.10;;;;;;;10.39;100.00;92099.91;6254371;22;19995;-78
2023/10/29 07:11:28;;;;;;;9.15;2.17;;;;;;;10.63;100.00;92100.44;6275931;22;20030;-80
2023/10/29 07:13:54;;;;;;;7.20;2.08;;;;;;;10.68;100.00;92101.41;6276265;22;20016;-81
2023/10/29 07:16:19;;;;;;;8.32;2.40;;;;;;;10.68;100.00;92106.63;6276358;22;20429;-80
2023/10/29 07:18:45;;;;;;;5.55;2.03;;;;;;;10.63;100.00;92107.53;6279191;22;20047;-81
2023/10/29 07:21:11;;;;;;;5.30;2.30;;;;;;;10.59;100.00;92104.72;6275493;22;20027;-79
2023/10/29 07:23:36;;;;;;;7.28;2.20;;;;;;;10.58;100.00;92113.66;6251513;22;20015;-80
2023/10/29 07:26:02;;;;;;;8.45;2.20;;;;;;;10.54;100.00;92106.69;6277972;22;20028;-81
2023/10/29 07:28:28;;;;;;;8.95;2.40;;;;;;;10.54;100.00;92106.69;6277748;22;20023;-82
2023/10/29 07:30:55;;;;;;;4.60;2.17;;;;;;;10.53;100.00;92115.56;6275395;22;20361;-81
2023/10/29 07:33:21;;;;;;;10.23;2.40;;;;;;;10.53;100.00;92121.59;6279951;22;20015;-79
2023/10/29 07:35:46;;;;;;;7.80;2.30;;;;;;;10.50;100.00;92121.41;6258965;22;20026;-79
2023/10/29 07:38:12;;;;;;;6.57;2.00;;;;;;;10.48;100.00;92119.06;6285285;22;20023;-82
2023/10/29 07:40:38;;;;;;;6.38;1.90;;;;;;;10.47;100.00;92116.75;6284236;22;20027;-81
2023/10/29 07:43:04;;;;;;;5.45;1.90;;;;;;;10.46;100.00;92125.69;6282586;22;20390;-82
2023/10/29 07:45:31;;;;;;;7.65;2.00;;;;;;;10.40;100.00;92123.19;6278735;22;20026;-81
2023/10/29 07:47:57;;;;;;;4.25;1.83;;;;;;;10.37;100.00;92133.44;6277769;22;20011;-84
2023/10/29 07:50:22;;;;;;;7.93;3.60;;;;;;;10.37;100.00;92133.44;6278478;22;20080;-81
2023/10/29 07:52:48;;;;;;;7.72;2.30;;;;;;;10.38;100.00;92145.44;6277763;22;20004;-79
2023/10/29 07:55:14;;;;;;;6.32;2.50;;;;;;;10.25;100.00;92146.22;6249655;22;20012;-79
2023/10/29 07:57:39;;;;;;;8.02;2.40;;;;;;;10.15;100.00;92134.88;6276128;22;20468;-79
2023/10/29 08:00:09;;;;;;;5.75;2.00;;;;;;;10.11;100.00;92136.53;6276580;22;19999;-82
2023/10/29 08:02:37;;;;;;;;;;;;;;;10.12;100.00;92153.78;6278903;22;20347;-81
2023/10/29 08:05:03;;;;;;;9.52;4.72;;;;;;;10.29;100.00;92155.03;6279594;22;19914;-80
2023/10/29 08:07:29;;;;;;;5.90;2.83;;;;;;;10.05;100.00;92153.38;6277168;22;20435;-82
2023/10/29 08:09:56;;;;;;;5.28;2.40;;;;;;;9.95;100.00;92164.00;6276550;22;20055;-80
2023/10/29 08:12:22;;;;;;;9.38;2.25;;;;;;;9.90;100.00;92161.50;6299088;22;20046;-79
2023/10/29 08:14:48;;;;;;;5.57;2.00;;;;;;;9.86;100.00;92143.03;6279534;22;20420;-80
2023/10/29 08:17:17;;;;;;;7.40;2.15;;;;;;;9.87;100.00;92141.94;6307708;22;20003;-82
2023/10/29 08:19:46;;;;;;;6.03;2.17;;;;;;;9.87;100.00;92141.94;6308493;22;20015;-81
2023/10/29 08:22:12;;;;;;;5.95;2.00;;;;;;;10.02;100.00;92135.66;6307491;22;20094;-79
2023/10/29 08:24:39;;;;;;;6.47;2.58;;;;;;;10.01;100.00;92142.72;6306829;22;19999;-79
2023/10/29 08:27:08;;;;;;;9.93;2.95;;;;;;;9.95;100.00;92137.88;6310120;22;20026;-81
2023/10/29 08:29:39;;;;;;;6.60;2.20;;;;;;;9.89;100.00;92141.66;6310577;22;20007;-78
2023/10/29 08:32:05;;;;;;;10.02;2.22;;;;;;;9.57;100.00;92164.19;6309319;22;20022;-79
2023/10/29 08:34:30;;;;;;;5.43;2.30;;;;;;;9.63;100.00;92172.69;6311274;22;19999;-81
2023/10/29 08:36:56;;;;;;;3.63;1.88;;;;;;;9.45;100.00;92158.63;6310881;22;20026;-81
2023/10/29 08:39:23;;;;;;;6.53;1.90;;;;;;;9.49;100.00;92162.22;6282787;22;20035;-77
2023/10/29 08:41:49;;;;;;;7.60;2.50;;;;;;;9.48;100.00;92161.44;6282245;22;20011;-77
2023/10/29 08:44:15;;;;;;;9.95;2.60;;;;;;;9.48;100.00;92171.09;6305788;22;20015;-80
2023/10/29 08:46:41;;;;;;;7.43;2.88;;;;;;;9.50;100.00;92175.00;6282049;22;20054;-80
2023/10/29 08:49:07;;;;;;;8.13;2.50;;;;;;;9.52;100.00;92169.47;6309418;22;20352;-81
2023/10/29 08:51:33;;;;;;;4.20;2.13;;;;;;;9.51;100.00;92173.91;6310873;22;20011;-79
2023/10/29 08:53:59;;;;;;;8.27;2.35;;;;;;;9.54;100.00;92175.19;6310719;22;20025;-79
2023/10/29 08:56:25;;;;;;;6.32;2.15;;;;;;;9.55;100.00;92171.53;6312706;22;20492;-80
2023/10/29 08:58:51;;;;;;;7.90;2.47;;;;;;;9.58;100.00;92163.09;6311242;22;20019;-76
2023/10/29 09:01:17;;;;;;;6.53;2.70;;;;;;;9.62;100.00;92168.53;6285055;22;20003;-81
2023/10/29 09:03:43;;;;;;;5.63;2.70;;;;;;;9.63;100.00;92170.84;6310682;22;20025;-79
2023/10/29 09:06:08;;;;;;;6.45;2.50;;;;;;;9.62;100.00;92179.75;6314604;22;20356;-79
2023/10/29 09:08:34;;;;;;;6.57;2.40;;;;;;;9.58;100.00;92182.16;6313684;22;20160;-79
2023/10/29 09:11:00;;;;;;;9.50;3.00;;;;;;;9.64;100.00;92190.72;6285425;22;20019;-77
2023/10/29 09:13:27;;;;;;;5.80;2.17;;;;;;;9.62;100.00;92212.97;6312974;22;20079;-78
2023/10/29 09:15:53;;;;;;;6.53;2.28;;;;;;;9.42;100.00;92198.38;6262811;22;20017;-78
2023/10/29 09:18:19;;;;;;;8.27;2.50;;;;;;;9.50;100.00;92190.69;6315769;22;20063;-78
2023/10/29 09:20:47;;;;;;;8.20;2.45;;;;;;;9.56;100.00;92176.44;6313774;22;20073;-79
2023/10/29 09:23:14;;;;;;;6.72;2.38;;;;;;;9.61;100.00;92183.41;6310470;22;20015;-77
2023/10/29 09:25:45;;;;;;;8.70;3.15;;;;;;;9.61;100.00;92180.81;6308824;22;20046;-78
2023/10/29 09:28:11;;;;;;;10.05;3.10;;;;;;;9.64;100.00;92185.47;6310233;22;20011;-77
2023/10/29 09:30:41;;;;;;;6.10;2.50;;;;;;;9.61;100.00;92172.97;6316097;22;20055;-77
2023/10/29 09:33:08;;;;;;;5.80;2.45;;;;;;;9.68;100.00;92186.47;6289350;22;20152;-77
2023/10/29 09:35:40;;;;;;;6.25;2.80;;;;;;;9.74;100.00;92181.91;6316781;22;20464;-76
2023/10/29 09:38:06;;;;;;;4.47;2.10;;;;;;;9.76;100.00;92177.94;6320562;22;20011;-77
2023/10/29 09:40:32;;;;;;;6.22;2.45;;;;;;;9.73;100.00;92181.13;6306982;22;20262;-78
2023/10/29 09:43:03;;;;;;;8.63;2.80;;;;;;;9.79;100.00;92198.31;6306794;22;20011;-77
2023/10/29 09:45:31;;;;;;;6.57;2.50;;;;;;;9.79;100.00;92197.50;6305581;22;20491;-81
2023/10/29 09:47:59;;;;;;;6.15;3.15;;;;;;;9.69;100.00;92198.47;6277241;22;20007;-76
2023/10/29 09:50:26;;;;;;;7.15;3.03;;;;;;;9.55;100.00;92201.03;6280366;22;20015;-78
2023/10/29 09:52:53;;;;;;;8.20;3.30;;;;;;;9.59;100.00;92206.44;6309419;22;20011;-78
2023/10/29 09:55:22;;;;;;;7.45;3.22;;;;;;;9.62;100.00;92205.91;6310816;22;20015;-78
2023/10/29 09:57:49;;;;;;;21.40;8.82;;;;;;;9.65;100.00;92215.00;6310627;22;20006;-78
2023/10/29 10:00:16;;;;;;;11.40;3.90;;;;;;;9.68;100.00;92207.38;6299384;22;20015;-76
2023/10/29 10:02:59;;;;;;;13.35;5.30;;;;;;;9.69;100.00;92201.06;6273567;22;20018;-79
2023/10/29 10:05:28;;;;;;;7.88;4.47;;;;;;;9.72;100.00;92197.09;6300733;22;20015;-77
2023/10/29 10:07:55;;;;;;;10.30;4.57;;;;;;;9.78;100.00;92195.97;6304738;22;20497;-77
2023/10/29 10:10:21;;;;;;;11.25;5.90;;;;;;;9.83;100.00;92201.09;6276719;22;20022;-75
2023/10/29 10:12:49;;;;;;;18.08;8.35;;;;;;;9.82;100.00;92202.16;6304779;22;20026;-79
2023/10/29 10:15:16;;;;;;;20.98;10.38;;;;;;;9.85;100.00;92200.81;6299573;22;20018;-76
2023/10/29 10:17:57;;;;;;;22.30;10.13;;;;;;;9.93;100.00;92200.94;6246339;22;20015;-79
2023/10/29 10:20:23;;;;;;;23.15;11.25;;;;;;;9.91;100.00;92199.69;6298024;22;20022;-78
2023/10/29 10:22:55;;;;;;;9.75;5.03;;;;;;;9.97;100.00;92201.13;6275791;22;20080;-78
2023/10/29 10:25:23;;;;;;;9.73;4.68;;;;;;;10.04;100.00;92198.88;6304332;22;20015;-77
2023/10/29 10:27:54;;;;;;;9.40;3.60;;;;;;;10.06;100.00;92199.38;6295083;22;20042;-77
2023/10/29 10:30:39;;;;;;;7.00;2.60;;;;;;;10.14;100.00;92200.56;6272546;22;20292;-79
2023/10/29 10:33:09;;;;;;;7.03;2.03;;;;;;;10.17;100.00;92210.44;6278118;22;20007;-77
2023/10/29 10:35:42;;;;;;;6.20;2.92;;;;;;;10.17;100.00;92205.97;6283191;22;20019;-79
2023/10/29 10:38:08;;;;;;;7.00;3.95;;;;;;;10.23;100.00;92208.53;6310732;22;20108;-79
2023/10/29 10:40:34;;;;;;;4.72;2.83;;;;;;;10.26;100.00;92207.94;6308676;22;20037;-77
2023/10/29 10:43:01;;;;;;;7.47;4.05;;;;;;;10.30;100.00;92196.63;6304542;22;20015;-78
2023/10/29 10:45:28;;;;;;;8.07;5.13;;;;;;;10.29;100.00;92183.81;6309674;22;20065;-78
2023/10/29 10:47:56;;;;;;;5.25;2.65;;;;;;;10.38;100.00;92189.91;6311418;22;20368;-79
2023/10/29 10:50:24;;;;;;;3.67;1.90;;;;;;;10.38;100.00;92192.53;6282573;22;19996;-77
2023/10/29 10:52:51;;;;;;;5.72;2.53;;;;;;;10.32;100.00;92194.50;6283698;22;20467;-78
2023/10/29 10:55:20;;;;;;;5.93;3.08;;;;;;;10.36;100.00;92189.47;6283945;22;20035;-78
2023/10/29 10:57:47;;;;;;;5.95;3.60;;;;;;;10.34;100.00;92186.38;6282421;22;20023;-77
2023/10/29 11:00:14;;;;;;;5.32;3.08;;;;;;;10.36;100.00;92185.00;6310401;22;20401;-77
2023/10/29 11:02:40;;;;;;;5.10;2.92;;;;;;;10.36;100.00;92190.22;6283481;22;20456;-78
2023/10/29 11:05:09;;;;;;;4.57;2.53;;;;;;;10.34;100.00;92196.81;6283759;22;20008;-77
2023/10/29 11:07:36;;;;;;;4.43;2.40;;;;;;;10.38;100.00;92214.28;6311418;22;20681;-78
2023/10/29 11:10:02;;;;;;;424.13;10.23;;;;;;;10.42;100.00;92209.22;6308420;22;20030;-79
2023/10/29 11:12:35;;;;;;;6.75;3.15;;;;;;;10.31;100.00;92203.41;6308270;22;20383;-77
2023/10/29 11:15:15;;;;;;;5.90;2.88;;;;;;;10.31;100.00;92202.63;6281829;22;20256;-79
2023/10/29 11:18:00;;;;;;;6.55;3.53;;;;;;;10.40;100.00;92206.09;6281137;22;20045;-77
2023/10/29 11:23:13;;;;;;;3.88;1.70;;;;;;;10.54;100.00;92227.06;6281934;22;20033;-78
2023/10/29 11:25:39;;;;;;;787.75;18.98;;;;;;;10.30;100.00;92217.56;6309667;22;20033;-79
2023/10/29 11:28:06;;;;;;;1339.57;36.05;;;;;;;9.98;100.00;92215.75;6309839;22;19995;-76
2023/10/29 11:30:32;;;;;;;500.63;11.80;;;;;;;10.02;100.00;92206.28;6259169;22;20059;-77